This is the latest recevied weather packets stored in our database for station/object N5ATR. If no packets are shown the sender has not sent any weather packets the latest 10 day(s).
| Time | Temp. | Humidity | Pressure | Rain* | Wind** | Luminosity | Snow |
|---|---|---|---|---|---|---|---|
| 1777826824 | 15.56° C | 37% | 1021.2 hPa | 0 mm | - | 593 W/m² | - |
| 1777826521 | 15° C | 43% | 1021 hPa | 0 mm | - | 646 W/m² | - |
| 1777826217 | 15° C | 43% | 1021 hPa | 0 mm | - | 675 W/m² | - |
| 1777825915 | 14.44° C | 46% | 1020.9 hPa | 0 mm | - | 652 W/m² | - |
| 1777825612 | 13.89° C | 44% | 1021 hPa | 0 mm | - | 597 W/m² | - |
| 1777825310 | 13.33° C | 44% | 1021.3 hPa | 0 mm | - | 575 W/m² | - |
| 1777825007 | 14.44° C | 45% | 1021.3 hPa | 0 mm | - | 563 W/m² | - |
| 1777824702 | 13.89° C | 44% | 1021.2 hPa | 0 mm | - | 583 W/m² | - |
| 1777824400 | 13.89° C | 46% | 1021.2 hPa | 0 mm | - | 541 W/m² | - |
| 1777824096 | 13.33° C | 51% | 1020.9 hPa | 0 mm | - | 482 W/m² | - |
| 1777823792 | 13.33° C | 47% | 1021.2 hPa | 0 mm | - | 497 W/m² | - |
| 1777823490 | 12.78° C | 52% | 1021.2 hPa | 0 mm | - | 462 W/m² | - |
| 1777823187 | 12.78° C | 53% | 1020.9 hPa | 0 mm | - | 436 W/m² | - |
| 1777822885 | 12.78° C | 53% | 1021.2 hPa | 0 mm | - | 418 W/m² | - |
| 1777822582 | 12.78° C | 55% | 1021.3 hPa | 0 mm | - | 412 W/m² | - |
| 1777822279 | 12.22° C | 55% | 1021.3 hPa | 0 mm | - | 409 W/m² | - |
| 1777821977 | 11.67° C | 58% | 1021.3 hPa | 0 mm | - | 429 W/m² | - |
| 1777821675 | 11.67° C | 58% | 1021.3 hPa | 0 mm | - | 356 W/m² | - |
| 1777821372 | 11.67° C | 60% | 1021.4 hPa | 0 mm | - | 319 W/m² | - |
| 1777821069 | 11.11° C | 59% | 1021.3 hPa | 0 mm | - | 363 W/m² | - |
| 1777820766 | 11.11° C | 61% | 1021.3 hPa | 0 mm | - | 303 W/m² | - |
| 1777820462 | 11.11° C | 60% | 1021.2 hPa | 0 mm | - | 280 W/m² | - |
| 1777820159 | 11.11° C | 58% | 1021.3 hPa | 0 mm | - | 275 W/m² | - |
| 1777819856 | 11.11° C | 57% | 1021.4 hPa | 0 mm | - | 308 W/m² | - |
| 1777819554 | 10.56° C | 59% | 1021.4 hPa | 0 mm | - | 333 W/m² | - |
* Rain latest hour (hover to see other rain measurements)
** Current wind speed in m/s (hover to see current wind gust speed)